Time;durP1;ratioP1;P1;durP2;ratioP2;P2;SDS_P1;SDS_P2;PMS_P1;PMS_P2;Temp;Humidity;BMP_temperature;BMP_pressure;BME280_temperature;BME280_humidity;BME280_pressure;Samples;Min_cycle;Max_cycle;Signal;HPM_P1;HPM_P2
2022/02/11 00:00:28;;;;;;;1999.90;999.90;;;;;;;1.35;100.00;101106.47;5045762;28;20052;-77
2022/02/11 00:05:52;;;;;;;1999.90;999.90;;;;;;;1.41;100.00;101119.06;5041864;28;20408;-78
2022/02/11 00:08:27;;;;;;;1999.90;999.90;;;;;;;1.38;100.00;101118.63;5037444;28;20041;-78
2022/02/11 00:11:00;;;;;;;1999.90;999.90;;;;;;;1.36;100.00;101122.34;5044174;28;20049;-78
2022/02/11 00:13:33;;;;;;;1999.90;999.90;;;;;;;1.28;100.00;101108.31;5042721;28;20041;-77
2022/02/11 00:16:01;;;;;;;1999.90;999.90;;;;;;;1.34;100.00;101107.47;5050149;28;20056;-78
2022/02/11 00:18:34;;;;;;;1999.90;999.90;;;;;;;1.38;100.00;101114.06;5049613;28;20055;-77
2022/02/11 00:21:07;;;;;;;1999.90;999.90;;;;;;;1.33;100.00;101109.34;5042624;28;20060;-77
2022/02/11 00:23:38;;;;;;;1999.90;999.90;;;;;;;1.28;100.00;101111.00;5045644;28;20052;-77
2022/02/11 00:26:12;;;;;;;1999.90;999.90;;;;;;;1.19;100.00;101099.69;5045014;28;20052;-77
2022/02/11 00:32:00;;;;;;;1999.90;999.90;;;;;;;1.20;100.00;101101.31;5053826;28;20058;-78
2022/02/11 00:34:41;;;;;;;1999.90;999.90;;;;;;;1.14;100.00;101088.75;5046150;28;20041;-78
2022/02/11 00:37:19;;;;;;;1999.90;999.90;;;;;;;0.98;100.00;101096.19;5044179;28;20390;-79
2022/02/11 00:40:12;;;;;;;1999.90;999.90;;;;;;;0.93;100.00;101090.59;5061169;28;20052;-78
2022/02/11 00:45:52;;;;;;;1999.90;999.90;;;;;;;0.80;100.00;101098.63;5043655;28;20037;-77
2022/02/11 01:02:45;;;;;;;1999.90;999.90;;;;;;;0.68;100.00;101079.66;5044908;28;20041;-78
2022/02/11 01:05:18;;;;;;;1999.90;999.90;;;;;;;0.79;100.00;101075.56;5038858;28;20643;-77
2022/02/11 01:07:52;;;;;;;1999.90;999.90;;;;;;;0.79;100.00;101076.38;5048201;28;20041;-77
2022/02/11 01:10:20;;;;;;;1999.90;999.90;;;;;;;0.77;100.00;101077.59;5044353;28;20060;-77
2022/02/11 01:12:55;;;;;;;1999.90;999.90;;;;;;;0.79;100.00;101075.56;5052666;28;20041;-78
2022/02/11 01:15:30;;;;;;;1999.90;999.90;;;;;;;0.79;100.00;101073.69;5044031;28;20045;-77
2022/02/11 01:18:06;;;;;;;1999.90;999.90;;;;;;;0.70;100.00;101080.25;5048837;28;20493;-78
2022/02/11 01:20:48;;;;;;;1999.90;999.90;;;;;;;0.73;100.00;101073.69;5046150;28;20421;-77
2022/02/11 01:23:39;;;;;;;1999.90;999.90;;;;;;;0.63;100.00;101079.44;5043572;28;20056;-77
2022/02/11 01:26:28;;;;;;;1999.90;999.90;;;;;;;0.64;100.00;101073.88;5050941;28;20055;-77
2022/02/11 01:29:29;;;;;;;1999.90;999.90;;;;;;;0.56;100.00;101067.91;5040898;28;20045;-77
2022/02/11 01:32:12;;;;;;;1999.90;999.90;;;;;;;0.51;100.00;101079.19;5046182;28;20068;-76
2022/02/11 01:34:56;;;;;;;1999.90;999.90;;;;;;;0.64;100.00;101076.56;5045004;28;20045;-77
2022/02/11 01:37:33;;;;;;;1999.90;999.90;;;;;;;0.70;100.00;101068.75;5047113;28;20041;-77
2022/02/11 01:46:41;;;;;;;1999.90;999.90;;;;;;;0.61;100.00;101070.81;4988555;28;20150;-77
2022/02/11 01:52:13;;;;;;;1999.90;999.90;;;;;;;0.46;100.00;101071.78;5030773;28;20053;-77
2022/02/11 01:54:53;;;;;;;1999.90;999.90;;;;;;;0.57;100.00;101072.22;5040941;28;20057;-77
2022/02/11 01:58:02;;;;;;;1999.90;999.90;;;;;;;0.54;100.00;101067.25;5043308;28;20053;-77
2022/02/11 02:00:43;;;;;;;1999.90;999.90;;;;;;;0.47;100.00;101067.25;5047641;28;20374;-77
2022/02/11 02:06:35;;;;;;;1999.90;999.90;;;;;;;0.44;100.00;101055.13;5016307;28;20056;-76
2022/02/11 02:09:45;;;;;;;1999.90;999.90;;;;;;;0.40;100.00;101056.53;5043161;28;20148;-77
2022/02/11 02:12:36;;;;;;;1999.90;999.90;;;;;;;0.41;100.00;101046.66;5046787;28;20061;-78
2022/02/11 02:15:38;;;;;;;1999.90;999.90;;;;;;;0.40;100.00;101050.34;5038634;28;20652;-77
2022/02/11 02:24:13;;;;;;;1999.90;999.90;;;;;;;0.32;100.00;101040.66;5045429;28;20052;-77
2022/02/11 02:27:05;;;;;;;1999.90;999.90;;;;;;;0.28;100.00;101037.56;5047744;28;20044;-77
2022/02/11 02:38:45;;;;;;;1999.90;999.90;;;;;;;0.40;100.00;101031.59;5090007;27;20390;-78
2022/02/11 02:58:24;;;;;;;1999.90;999.90;;;;;;;0.37;100.00;101029.34;5093668;28;20601;-79
2022/02/11 03:15:11;;;;;;;1999.90;999.90;;;;;;;0.38;100.00;101010.41;5087055;28;20052;-77
2022/02/11 03:31:34;;;;;;;1999.90;999.90;;;;;;;0.36;100.00;101019.66;5085515;28;20412;-78
2022/02/11 03:35:21;;;;;;;1999.90;999.90;;;;;;;0.43;100.00;101012.44;5081420;28;20044;-80
2022/02/11 03:49:20;;;;;;;1999.90;999.90;;;;;;;0.53;100.00;101006.72;5067422;28;20051;-78
2022/02/11 03:52:30;;;;;;;1999.90;999.90;;;;;;;0.48;100.00;100999.28;5065730;28;20549;-77
2022/02/11 03:55:45;;;;;;;1999.90;999.90;;;;;;;0.37;100.00;100998.03;5061215;28;20048;-79
2022/02/11 04:21:47;;;;;;;1999.90;999.90;;;;;;;0.26;100.00;100986.09;5065953;28;20045;-77
2022/02/11 04:53:15;;;;;;;1999.90;999.90;;;;;;;-0.15;100.00;100978.16;5064650;28;20704;-79
2022/02/11 04:55:48;;;;;;;1999.90;999.90;;;;;;;-0.18;100.00;100982.91;5064522;28;20055;-79
2022/02/11 05:01:12;;;;;;;1999.90;999.90;;;;;;;-0.20;100.00;100984.94;5063379;28;20047;-78
2022/02/11 05:03:40;;;;;;;1999.90;999.90;;;;;;;-0.12;100.00;100985.81;5062196;28;20049;-77
2022/02/11 05:06:13;;;;;;;1999.90;999.90;;;;;;;-0.22;100.00;100984.31;5065225;28;20064;-77
2022/02/11 05:08:46;;;;;;;1999.90;999.90;;;;;;;-0.23;100.00;100984.53;5059608;28;20409;-78
2022/02/11 05:11:16;;;;;;;1999.90;999.90;;;;;;;-0.30;100.00;100987.19;5072761;28;20079;-78
2022/02/11 05:13:49;;;;;;;1999.90;999.90;;;;;;;-0.24;100.00;100983.69;5068005;28;20045;-78
2022/02/11 05:16:22;;;;;;;1999.90;999.90;;;;;;;-0.29;100.00;100979.97;5060206;28;20051;-78
2022/02/11 05:18:55;;;;;;;1999.90;999.90;;;;;;;-0.28;100.00;100974.41;5069113;28;20501;-78
2022/02/11 05:21:28;;;;;;;1999.90;999.90;;;;;;;-0.32;100.00;100980.38;5059553;28;20419;-77
2022/02/11 05:23:57;;;;;;;1999.90;999.90;;;;;;;-0.43;100.00;100963.88;5063048;28;20052;-78
2022/02/11 05:26:31;;;;;;;1999.90;999.90;;;;;;;-0.36;100.00;100975.44;5062539;28;20039;-78
2022/02/11 05:29:04;;;;;;;1999.90;999.90;;;;;;;-0.36;100.00;100982.59;5060784;28;20055;-78
2022/02/11 05:31:37;;;;;;;1999.90;999.90;;;;;;;-0.36;100.00;100983.44;5057797;28;20052;-78
2022/02/11 05:34:11;;;;;;;1999.90;999.90;;;;;;;-0.40;100.00;100974.19;5055340;28;20059;-78
2022/02/11 05:36:44;;;;;;;1999.90;999.90;;;;;;;-0.38;100.00;100979.31;5062290;28;20044;-78
2022/02/11 05:39:18;;;;;;;1999.90;999.90;;;;;;;-0.35;100.00;100977.09;5061518;28;20077;-78
2022/02/11 05:41:52;;;;;;;1999.90;999.90;;;;;;;-0.39;100.00;100973.16;5070013;28;20046;-79
2022/02/11 05:44:25;;;;;;;1999.90;999.90;;;;;;;-0.32;100.00;100961.66;5071265;28;20040;-77
2022/02/11 05:46:58;;;;;;;1999.90;999.90;;;;;;;-0.33;100.00;100960.84;5057390;28;20433;-78
2022/02/11 05:49:31;;;;;;;1999.90;999.90;;;;;;;-0.40;100.00;100959.97;5058841;28;20041;-78
2022/02/11 05:52:05;;;;;;;1999.90;999.90;;;;;;;-0.41;100.00;100966.38;5061313;28;20060;-78
2022/02/11 05:54:38;;;;;;;1999.90;999.90;;;;;;;-0.43;100.00;100963.88;5056532;28;20049;-78
2022/02/11 05:57:13;;;;;;;1999.90;999.90;;;;;;;-0.40;100.00;100962.63;5069831;28;20052;-79
2022/02/11 05:59:46;;;;;;;1999.90;999.90;;;;;;;-0.41;100.00;100964.50;5056989;28;20362;-79
2022/02/11 06:02:19;;;;;;;1999.90;999.90;;;;;;;-0.43;100.00;100957.69;5058572;28;20049;-78
2022/02/11 06:04:52;;;;;;;1999.90;999.90;;;;;;;-0.37;100.00;100973.78;5063796;28;20041;-78
2022/02/11 06:07:25;;;;;;;1999.90;999.90;;;;;;;-0.33;100.00;100976.03;5058308;28;20416;-79
2022/02/11 06:09:58;;;;;;;1999.90;999.90;;;;;;;-0.38;100.00;100974.78;5061751;28;20044;-78
2022/02/11 06:12:33;;;;;;;1999.90;999.90;;;;;;;-0.36;100.00;100974.59;5066477;28;20075;-78
2022/02/11 06:15:07;;;;;;;1999.90;999.90;;;;;;;-0.37;100.00;100980.97;5061949;28;20044;-78
2022/02/11 06:17:40;;;;;;;1999.90;999.90;;;;;;;-0.30;100.00;100979.16;5052517;28;20049;-77
2022/02/11 06:20:09;;;;;;;1999.90;999.90;;;;;;;-0.30;100.00;100978.31;5052976;28;20246;-78
2022/02/11 06:22:44;;;;;;;1999.90;999.90;;;;;;;-0.25;100.00;100971.34;5068926;28;20409;-78
2022/02/11 06:25:17;;;;;;;1999.90;999.90;;;;;;;-0.34;100.00;100975.22;5059885;28;20067;-77
2022/02/11 06:27:51;;;;;;;1999.90;999.90;;;;;;;-0.28;100.00;100965.56;5075293;28;20040;-78
2022/02/11 06:30:25;;;;;;;1999.90;999.90;;;;;;;-0.24;100.00;100981.00;5066976;28;20055;-77
2022/02/11 06:32:58;;;;;;;1999.90;999.90;;;;;;;-0.26;100.00;100980.41;5059704;28;20053;-78
2022/02/11 06:35:34;;;;;;;1999.90;999.90;;;;;;;-0.21;100.00;100987.81;5063297;28;20488;-79
2022/02/11 06:38:07;;;;;;;1999.90;999.90;;;;;;;-0.25;100.00;100992.75;5061691;28;20060;-77
2022/02/11 06:40:40;;;;;;;1999.90;999.90;;;;;;;-0.21;100.00;100994.00;5060539;28;20044;-77
2022/02/11 06:43:10;;;;;;;1999.90;999.90;;;;;;;-0.15;100.00;100986.19;5059521;28;20052;-80
2022/02/11 06:45:39;;;;;;;1999.90;999.90;;;;;;;-0.10;100.00;100989.09;5062617;28;20489;-79
2022/02/11 06:48:15;;;;;;;1999.90;999.90;;;;;;;-0.08;100.00;100997.75;5062467;28;20061;-78
2022/02/11 06:50:48;;;;;;;1999.90;999.90;;;;;;;-0.08;100.00;100993.22;5056166;28;20053;-78
2022/02/11 06:53:22;;;;;;;1999.90;999.90;;;;;;;-0.11;100.00;100998.97;5058590;28;20053;-78
2022/02/11 06:55:55;;;;;;;1999.90;999.90;;;;;;;-0.10;100.00;100997.94;5055160;28;20051;-78
2022/02/11 06:58:29;;;;;;;1999.90;999.90;;;;;;;-0.07;100.00;100992.19;5073326;28;20516;-78
2022/02/11 07:01:03;;;;;;;1999.90;999.90;;;;;;;-0.03;100.00;101005.97;5060716;28;20049;-78
2022/02/11 07:03:36;;;;;;;1999.90;999.90;;;;;;;-0.02;100.00;101013.00;5057658;28;20052;-78
2022/02/11 07:06:09;;;;;;;1999.90;999.90;;;;;;;0.01;100.00;101004.56;5065524;28;20403;-79
2022/02/11 07:08:42;;;;;;;1999.90;999.90;;;;;;;0.11;100.00;101018.38;5050654;28;20049;-79
2022/02/11 07:11:15;;;;;;;1999.90;999.90;;;;;;;0.10;100.00;101015.91;5054940;28;20053;-80
2022/02/11 07:13:50;;;;;;;1999.90;999.90;;;;;;;0.15;100.00;101021.47;5062581;28;20045;-78
2022/02/11 07:16:23;;;;;;;1999.90;999.90;;;;;;;0.24;100.00;101022.94;5061077;28;20048;-78
2022/02/11 07:18:56;;;;;;;1999.90;999.90;;;;;;;0.24;100.00;101025.59;5058614;28;20403;-80
2022/02/11 07:21:29;;;;;;;1999.90;999.90;;;;;;;0.32;100.00;101029.97;5061162;28;20044;-78
2022/02/11 07:23:57;;;;;;;1999.90;999.90;;;;;;;0.29;100.00;101035.69;5063423;28;20389;-78
2022/02/11 07:26:30;;;;;;;1999.90;999.90;;;;;;;0.30;100.00;101042.72;5060495;28;20047;-80
2022/02/11 07:29:00;;;;;;;1999.90;999.90;;;;;;;0.32;100.00;101040.66;5063054;28;20056;-78
2022/02/11 07:31:28;;;;;;;1999.90;999.90;;;;;;;0.36;100.00;101044.59;5081500;28;20049;-78
2022/02/11 07:34:01;;;;;;;1999.90;999.90;;;;;;;0.37;100.00;101045.41;5061571;28;20385;-79
2022/02/11 07:36:34;;;;;;;1999.90;999.90;;;;;;;0.38;100.00;101058.59;5066735;28;20051;-79
2022/02/11 07:39:03;;;;;;;1999.90;999.90;;;;;;;0.39;100.00;101054.88;5058935;28;20063;-79
2022/02/11 07:41:36;;;;;;;1999.90;999.90;;;;;;;0.39;100.00;101060.25;5076855;28;20048;-78
2022/02/11 07:44:10;;;;;;;1999.90;999.90;;;;;;;0.36;100.00;101062.50;5069730;28;20435;-78
2022/02/11 07:46:44;;;;;;;1999.90;999.90;;;;;;;0.38;100.00;101074.66;5067906;28;20032;-79
2022/02/11 07:49:17;;;;;;;1999.90;999.90;;;;;;;0.37;100.00;101064.97;5059744;28;20482;-80
2022/02/11 07:51:45;;;;;;;1999.90;999.90;;;;;;;0.40;100.00;101072.63;5065365;28;20047;-78
2022/02/11 07:54:18;;;;;;;1999.90;999.90;;;;;;;0.39;100.00;101075.47;5058374;28;20052;-79
2022/02/11 07:56:46;;;;;;;1999.90;999.90;;;;;;;0.45;100.00;101077.34;5058833;28;20053;-80
2022/02/11 07:59:21;;;;;;;1999.90;999.90;;;;;;;0.44;100.00;101078.38;5063253;28;20211;-78
2022/02/11 08:01:54;;;;;;;1999.90;999.90;;;;;;;0.52;100.00;101088.06;5060586;28;20053;-77
2022/02/11 08:04:28;;;;;;;1999.90;999.90;;;;;;;0.50;100.00;101094.47;5059893;28;20048;-78
2022/02/11 08:06:57;;;;;;;1999.90;999.90;;;;;;;0.49;100.00;101108.06;5064076;28;20409;-79
2022/02/11 08:09:30;;;;;;;1999.90;999.90;;;;;;;0.62;100.00;101109.94;5062280;28;20408;-78
2022/02/11 08:12:04;;;;;;;1999.90;999.90;;;;;;;0.65;100.00;101123.75;5062922;28;20049;-80
2022/02/11 08:14:33;;;;;;;1999.90;999.90;;;;;;;0.72;100.00;101120.25;5063806;28;20052;-79
2022/02/11 08:17:06;;;;;;;1999.90;999.90;;;;;;;0.75;100.00;101131.38;5064356;28;20049;-78
2022/02/11 08:19:40;;;;;;;1999.90;999.90;;;;;;;0.81;100.00;101127.88;5060585;28;20041;-79
2022/02/11 08:22:15;;;;;;;1999.90;999.90;;;;;;;0.92;100.00;101131.00;5066787;28;20056;-78
2022/02/11 08:24:43;;;;;;;1999.90;999.90;;;;;;;0.98;100.00;101136.38;5061391;28;20053;-79
2022/02/11 08:27:16;;;;;;;1999.90;999.90;;;;;;;1.04;100.00;101129.38;5070477;28;20056;-77
2022/02/11 08:29:51;;;;;;;1999.90;999.90;;;;;;;1.07;100.00;101133.50;5061766;28;20063;-78
2022/02/11 08:32:24;;;;;;;1999.90;999.90;;;;;;;1.14;100.00;101143.16;5058487;28;20036;-78
2022/02/11 08:34:52;;;;;;;1999.90;999.90;;;;;;;1.17;100.00;101142.78;5058733;28;20060;-79
2022/02/11 08:37:21;;;;;;;1999.90;999.90;;;;;;;1.19;100.00;101143.38;5058163;28;20071;-80
2022/02/11 08:39:49;;;;;;;1999.90;999.90;;;;;;;1.21;100.00;101155.78;5058865;28;20052;-80
2022/02/11 08:42:22;;;;;;;1999.90;999.90;;;;;;;1.20;100.00;101165.66;5060361;28;20048;-79
2022/02/11 08:44:57;;;;;;;1999.90;999.90;;;;;;;1.16;100.00;101162.56;5066053;28;20469;-79
2022/02/11 08:47:25;;;;;;;1999.90;999.90;;;;;;;1.13;100.00;101164.81;5064449;28;20619;-79
2022/02/11 08:49:59;;;;;;;1999.90;999.90;;;;;;;1.14;100.00;101169.97;5056877;28;20061;-79
2022/02/11 08:52:32;;;;;;;1999.90;999.90;;;;;;;1.13;100.00;101171.03;5058902;28;20048;-79
2022/02/11 08:55:00;;;;;;;1999.90;999.90;;;;;;;1.11;100.00;101162.34;5057762;28;20044;-79
2022/02/11 08:57:33;;;;;;;1999.90;999.90;;;;;;;1.07;100.00;101171.84;5050790;28;20425;-79
2022/02/11 09:00:10;;;;;;;1999.90;999.90;;;;;;;1.03;100.00;101175.94;5055854;28;20067;-78
2022/02/11 09:02:43;;;;;;;1999.90;999.90;;;;;;;1.08;100.00;101189.56;5046084;28;20048;-80
2022/02/11 09:05:16;;;;;;;1999.90;999.90;;;;;;;1.14;100.00;101198.66;5053033;28;20060;-79
2022/02/11 09:07:52;;;;;;;1999.90;999.90;;;;;;;1.11;100.00;101201.75;5046922;28;20057;-78
2022/02/11 09:10:21;;;;;;;1999.90;999.90;;;;;;;1.12;100.00;101208.75;5048409;28;20052;-79
2022/02/11 09:12:54;;;;;;;1999.90;999.90;;;;;;;1.16;100.00;101216.19;5050313;28;20404;-80
2022/02/11 09:15:30;;;;;;;1999.90;999.90;;;;;;;1.29;100.00;101223.41;5042425;28;20519;-80
2022/02/11 09:18:03;;;;;;;1999.90;999.90;;;;;;;1.55;100.00;101231.69;5052762;28;20059;-78
2022/02/11 09:20:37;;;;;;;1999.90;999.90;;;;;;;1.66;100.00;101237.25;5046300;28;20064;-77
2022/02/11 09:23:10;;;;;;;1999.90;999.90;;;;;;;1.70;100.00;101237.69;5049306;28;20412;-77
2022/02/11 09:25:43;;;;;;;1999.90;999.90;;;;;;;1.82;100.00;101248.59;5054161;28;20504;-81
2022/02/11 09:28:16;;;;;;;1999.90;999.90;;;;;;;1.93;100.00;101250.66;5048472;28;20405;-79
2022/02/11 09:30:51;;;;;;;1999.90;999.90;;;;;;;1.96;100.00;101255.63;5035513;28;20059;-78
2022/02/11 09:33:19;;;;;;;1999.90;999.90;;;;;;;1.61;100.00;101204.03;5036164;28;20063;-80
2022/02/11 09:35:49;;;;;;;1999.90;999.90;;;;;;;1.95;100.00;101256.66;5032544;28;20048;-78
2022/02/11 09:38:23;;;;;;;1999.90;999.90;;;;;;;1.97;100.00;101256.44;5041616;28;20051;-77
2022/02/11 09:40:56;;;;;;;1999.90;999.90;;;;;;;1.92;100.00;101275.88;5050272;28;20075;-79
2022/02/11 09:43:26;;;;;;;1999.90;999.90;;;;;;;1.96;100.00;101287.84;5041023;28;20044;-80
2022/02/11 09:46:01;;;;;;;1999.90;999.90;;;;;;;2.00;100.00;101304.34;5042628;28;20044;-78
2022/02/11 09:48:28;;;;;;;1999.90;999.90;;;;;;;1.99;100.00;101308.91;5039787;28;20845;-80
2022/02/11 09:50:55;;;;;;;1999.90;999.90;;;;;;;2.09;100.00;101311.16;5040888;28;20509;-78
2022/02/11 09:53:29;;;;;;;1999.90;999.90;;;;;;;2.16;100.00;101313.84;5039767;28;20489;-78
2022/02/11 09:56:04;;;;;;;1999.90;999.90;;;;;;;2.06;100.00;101308.91;5042313;28;20060;-79
2022/02/11 09:58:37;;;;;;;1999.90;999.90;;;;;;;2.14;100.00;101315.91;5052060;28;20052;-78
2022/02/11 10:01:13;;;;;;;1999.90;999.90;;;;;;;2.16;100.00;101324.59;5041313;28;20045;-81
2022/02/11 10:03:40;;;;;;;1999.90;999.90;;;;;;;2.29;100.00;101323.72;5041317;28;20594;-78
2022/02/11 10:06:09;;;;;;;1999.90;999.90;;;;;;;2.14;100.00;101322.13;5039257;28;20060;-79
2022/02/11 10:08:38;;;;;;;1999.90;999.90;;;;;;;2.24;100.00;101329.75;5047048;28;20045;-80
2022/02/11 10:11:08;;;;;;;1999.90;999.90;;;;;;;2.14;100.00;101338.22;5038627;28;20064;-78
2022/02/11 10:13:41;;;;;;;1999.90;999.90;;;;;;;2.16;100.00;101341.50;5038988;28;20063;-79
2022/02/11 10:16:16;;;;;;;1999.90;999.90;;;;;;;2.25;100.00;101354.72;5037362;28;21027;-78
2022/02/11 10:18:46;;;;;;;1999.90;999.90;;;;;;;2.28;100.00;101362.38;5037735;28;20056;-81
2022/02/11 10:21:20;;;;;;;1999.90;999.90;;;;;;;2.30;100.00;101368.38;5043296;28;20564;-80
2022/02/11 10:23:54;;;;;;;1999.90;999.90;;;;;;;2.36;100.00;101381.78;5042108;28;20064;-80
2022/02/11 10:26:27;;;;;;;1999.90;999.90;;;;;;;2.31;100.00;101386.97;5039274;28;20048;-79
2022/02/11 10:29:02;;;;;;;1999.90;999.90;;;;;;;2.25;100.00;101393.19;5044213;28;20057;-82
2022/02/11 10:31:39;;;;;;;1999.90;999.90;;;;;;;2.46;100.00;101396.66;5048247;28;20056;-80
2022/02/11 10:34:15;;;;;;;1999.90;999.90;;;;;;;2.51;100.00;101397.69;5044717;28;20143;-79
2022/02/11 10:36:47;;;;;;;1999.90;999.90;;;;;;;2.52;100.00;101393.97;5046605;28;20071;-77
2022/02/11 10:39:22;;;;;;;1999.90;999.90;;;;;;;2.47;100.00;101415.28;5049960;28;20066;-78
2022/02/11 10:41:57;;;;;;;1999.90;999.90;;;;;;;2.53;100.00;101424.38;5040219;28;20424;-78
2022/02/11 10:44:34;;;;;;;1999.90;999.90;;;;;;;2.52;100.00;101434.25;5048993;28;20052;-80
2022/02/11 10:47:10;;;;;;;1999.90;999.90;;;;;;;2.64;100.00;101436.34;5037849;28;20056;-79
2022/02/11 10:49:45;;;;;;;1999.90;999.90;;;;;;;2.91;100.00;101437.09;5042073;28;20513;-80
2022/02/11 10:52:20;;;;;;;1999.90;999.90;;;;;;;2.93;100.00;101445.81;5037313;28;20045;-80
2022/02/11 10:54:56;;;;;;;1999.90;999.90;;;;;;;2.97;100.00;101448.88;5042547;28;20056;-81
2022/02/11 10:57:31;;;;;;;1999.90;999.90;;;;;;;3.07;100.00;101457.34;5035208;28;20055;-78
2022/02/11 11:00:07;;;;;;;1999.90;999.90;;;;;;;3.11;100.00;101463.97;5041378;28;20049;-79
2022/02/11 11:02:40;;;;;;;1999.90;999.90;;;;;;;3.10;100.00;101472.25;5047710;28;20046;-81
2022/02/11 11:05:13;;;;;;;1999.90;999.90;;;;;;;3.19;100.00;101481.72;5044295;28;20447;-81
2022/02/11 11:07:47;;;;;;;1999.90;999.90;;;;;;;3.30;100.00;101472.19;5045336;28;20662;-79
2022/02/11 11:10:21;;;;;;;1999.90;999.90;;;;;;;3.43;100.00;101476.72;5055316;28;20048;-80
2022/02/11 11:12:58;;;;;;;1999.90;999.90;;;;;;;3.35;100.00;101486.66;5061434;28;20532;-79
2022/02/11 11:15:31;;;;;;;1999.90;999.90;;;;;;;3.48;100.00;101487.66;5044578;28;20060;-77
2022/02/11 11:18:07;;;;;;;1999.90;999.90;;;;;;;3.50;100.00;101491.78;5039695;28;20055;-81
2022/02/11 11:20:45;;;;;;;1999.90;999.90;;;;;;;3.73;100.00;101483.22;5037969;28;20051;-82
2022/02/11 11:23:21;;;;;;;1999.90;999.90;;;;;;;3.79;100.00;101494.97;5040003;28;20051;-79
2022/02/11 11:26:01;;;;;;;1999.90;999.90;;;;;;;3.74;100.00;101492.09;5037233;28;20060;-79
2022/02/11 11:28:47;;;;;;;1999.90;999.90;;;;;;;3.84;100.00;101515.88;5039047;28;20051;-79
2022/02/11 11:31:25;;;;;;;1999.90;999.90;;;;;;;3.87;100.00;101523.53;5034578;28;20056;-80
2022/02/11 11:34:13;;;;;;;;;;;;;;;3.93;100.00;101541.53;5031591;28;20057;-79
2022/02/11 11:36:45;;;;;;;1999.90;999.90;;;;;;;3.94;100.00;101535.09;5043574;28;19924;-79
2022/02/11 11:39:19;;;;;;;1999.90;999.90;;;;;;;3.95;100.00;101549.38;5046268;28;20059;-80
2022/02/11 11:42:04;;;;;;;1999.90;999.90;;;;;;;3.82;100.00;101558.34;5041159;28;20064;-79
2022/02/11 11:44:49;;;;;;;1999.90;999.90;;;;;;;3.80;100.00;101546.94;5041664;28;20414;-78
2022/02/11 11:47:28;;;;;;;1999.90;999.90;;;;;;;3.81;100.00;101554.00;5037868;28;20052;-80
2022/02/11 11:50:03;;;;;;;1999.90;999.90;;;;;;;3.78;100.00;101546.34;5039424;28;20057;-78
2022/02/11 11:52:43;;;;;;;1999.90;999.90;;;;;;;3.88;100.00;101557.47;5033992;28;20052;-79
2022/02/11 11:55:20;;;;;;;1999.90;999.90;;;;;;;3.88;100.00;101562.88;5032075;28;20052;-79
2022/02/11 11:57:49;;;;;;;1999.90;999.90;;;;;;;3.68;100.00;101571.84;5030158;28;20052;-78
2022/02/11 12:00:34;;;;;;;1999.90;999.90;;;;;;;3.70;100.00;101558.16;5033416;28;20060;-79
2022/02/11 12:03:07;;;;;;;1999.90;999.90;;;;;;;3.78;100.00;101574.09;5037139;28;20053;-80
2022/02/11 12:05:41;;;;;;;1999.90;999.90;;;;;;;3.73;100.00;101580.13;5039975;28;20045;-78
2022/02/11 12:08:17;;;;;;;1999.90;999.90;;;;;;;3.66;100.00;101590.09;5030731;28;20060;-80
2022/02/11 12:10:50;;;;;;;1999.90;999.90;;;;;;;3.59;100.00;101586.59;5043069;28;20044;-79
2022/02/11 12:13:24;;;;;;;1999.90;999.90;;;;;;;3.62;100.00;101596.09;5036919;28;20059;-80
2022/02/11 12:15:58;;;;;;;1999.90;999.90;;;;;;;3.66;100.00;101600.00;5040230;28;20056;-78
2022/02/11 12:18:26;;;;;;;1999.90;999.90;;;;;;;3.69;100.00;101599.63;5033228;28;20411;-80
2022/02/11 12:20:54;;;;;;;1999.90;999.90;;;;;;;3.69;100.00;101602.31;5035036;28;20216;-81
2022/02/11 12:29:06;;;;;;;1999.90;999.90;;;;;;;3.90;100.00;101609.28;5038346;28;20060;-79
2022/02/11 12:31:40;;;;;;;1999.90;999.90;;;;;;;4.07;100.00;101637.41;5037242;28;20055;-78
2022/02/11 12:34:15;;;;;;;1999.90;999.90;;;;;;;4.21;100.00;101624.72;5038885;28;20052;-79
2022/02/11 12:36:48;;;;;;;1999.90;999.90;;;;;;;4.38;100.00;101643.09;5032633;28;20059;-80
2022/02/11 12:39:19;;;;;;;1999.90;999.90;;;;;;;4.17;100.00;101633.41;5038742;28;20060;-79
2022/02/11 12:41:50;;;;;;;1999.90;999.90;;;;;;;4.11;100.00;101642.38;5033526;28;20040;-80
2022/02/11 12:44:26;;;;;;;1999.90;999.90;;;;;;;3.95;100.00;101644.50;5034606;28;20079;-80
2022/02/11 12:47:00;;;;;;;1999.90;999.90;;;;;;;3.97;100.00;101657.75;5039487;28;20048;-79
2022/02/11 12:49:30;;;;;;;1999.90;999.90;;;;;;;3.92;100.00;101650.28;5032574;28;20052;-79
2022/02/11 12:52:03;;;;;;;1999.90;999.90;;;;;;;4.04;100.00;101643.19;5038707;28;20519;-81
2022/02/11 12:54:39;;;;;;;1999.90;999.90;;;;;;;4.10;100.00;101652.28;5039676;28;20040;-81
2022/02/11 12:57:17;;;;;;;1999.90;999.90;;;;;;;4.09;100.00;101662.25;5033742;28;20064;-80
2022/02/11 12:59:52;;;;;;;1999.90;999.90;;;;;;;4.14;100.00;101664.28;5038945;28;20055;-80
2022/02/11 13:02:27;;;;;;;1999.90;999.90;;;;;;;4.12;100.00;101682.56;5033409;28;20055;-80
2022/02/11 13:05:09;;;;;;;1999.90;999.90;;;;;;;4.31;100.00;101690.78;5029575;28;20052;-81
2022/02/11 13:07:38;;;;;;;;;;;;;;;4.14;100.00;101695.81;5038213;28;20057;-80
2022/02/11 13:10:10;;;;;;;1999.90;999.90;;;;;;;4.10;100.00;101700.78;5032974;28;19935;-80
2022/02/11 13:12:43;;;;;;;1925.72;999.90;;;;;;;4.03;100.00;101706.22;5031712;28;20456;-80
2022/02/11 13:15:13;;;;;;;1880.68;999.90;;;;;;;4.05;100.00;101706.81;5039475;28;20052;-79
2022/02/11 13:17:48;;;;;;;1849.72;999.90;;;;;;;3.95;100.00;101708.28;5034249;28;20071;-81
2022/02/11 13:20:23;;;;;;;1822.25;999.90;;;;;;;3.89;100.00;101705.41;5037666;28;20052;-79
2022/02/11 13:22:59;;;;;;;1799.30;999.90;;;;;;;4.03;100.00;101716.97;5047115;28;20143;-78
2022/02/11 13:25:35;;;;;;;1833.53;999.90;;;;;;;4.11;100.00;101729.38;5036599;28;20059;-79
2022/02/11 13:28:10;;;;;;;1817.53;999.90;;;;;;;4.22;100.00;101717.13;5037999;28;20052;-81
2022/02/11 13:30:45;;;;;;;1789.68;999.90;;;;;;;4.23;100.00;101730.38;5038471;28;20056;-80
2022/02/11 13:33:20;;;;;;;1766.53;999.90;;;;;;;4.11;100.00;101721.31;5028073;28;20048;-82
2022/02/11 13:35:49;;;;;;;1834.88;999.90;;;;;;;4.18;100.00;101735.56;5032288;28;20055;-81
2022/02/11 13:38:24;;;;;;;1845.20;999.90;;;;;;;4.07;100.00;101744.31;5029483;28;20497;-81
2022/02/11 13:41:01;;;;;;;1826.78;999.90;;;;;;;4.08;100.00;101744.09;5035158;28;20048;-82
2022/02/11 13:43:46;;;;;;;1825.40;999.90;;;;;;;4.04;100.00;101753.63;5035078;28;20049;-81
2022/02/11 13:46:27;;;;;;;1755.32;999.90;;;;;;;3.96;100.00;101779.97;5028933;28;20060;-80
2022/02/11 13:49:04;;;;;;;1725.55;999.90;;;;;;;3.23;100.00;101803.09;5040331;28;20048;-79
2022/02/11 13:51:34;;;;;;;1612.40;999.90;;;;;;;2.44;100.00;101815.16;5039766;28;20457;-80
2022/02/11 13:54:09;;;;;;;1631.40;999.90;;;;;;;2.13;100.00;101817.25;5035498;28;20059;-80
2022/02/11 13:56:46;;;;;;;1719.53;999.90;;;;;;;1.91;100.00;101819.13;5035204;28;21428;-81
2022/02/11 13:59:27;;;;;;;1833.87;999.90;;;;;;;1.81;100.00;101824.84;5034619;28;20424;-79
2022/02/11 14:02:05;;;;;;;1917.70;999.90;;;;;;;1.64;100.00;101818.06;5040503;28;20052;-80
2022/02/11 14:04:33;;;;;;;1999.90;999.90;;;;;;;1.69;100.00;101837.94;5033721;28;20059;-80
2022/02/11 14:07:03;;;;;;;1999.90;999.90;;;;;;;1.79;100.00;101847.53;5036122;28;20057;-81
2022/02/11 14:09:38;;;;;;;1999.90;999.90;;;;;;;1.80;100.00;101855.38;5039257;28;20056;-82